sensor_id;sensor_type;location;lat;lon;timestamp;P1;durP1;ratioP1;P2;durP2;ratioP2
42668;SDS011;29384;42.028;21.388;2023-03-14T00:01:57;5.68;;;4.43;;
42668;SDS011;29384;42.028;21.388;2023-03-14T00:04:22;14.10;;;4.63;;
42668;SDS011;29384;42.028;21.388;2023-03-14T00:06:48;5.13;;;3.58;;
42668;SDS011;29384;42.028;21.388;2023-03-14T00:09:14;6.05;;;3.75;;
42668;SDS011;29384;42.028;21.388;2023-03-14T00:11:40;6.32;;;4.20;;
42668;SDS011;29384;42.028;21.388;2023-03-14T00:17:08;7.03;;;4.03;;
42668;SDS011;29384;42.028;21.388;2023-03-14T00:19:33;13.77;;;5.35;;
42668;SDS011;29384;42.028;21.388;2023-03-14T00:21:58;15.23;;;4.30;;
42668;SDS011;29384;42.028;21.388;2023-03-14T00:24:24;15.75;;;4.28;;
42668;SDS011;29384;42.028;21.388;2023-03-14T00:26:49;10.88;;;4.75;;
42668;SDS011;29384;42.028;21.388;2023-03-14T00:32:17;6.70;;;3.95;;
42668;SDS011;29384;42.028;21.388;2023-03-14T00:34:42;5.93;;;4.43;;
42668;SDS011;29384;42.028;21.388;2023-03-14T00:37:08;11.55;;;4.68;;
42668;SDS011;29384;42.028;21.388;2023-03-14T00:39:33;5.10;;;4.40;;
42668;SDS011;29384;42.028;21.388;2023-03-14T00:41:58;11.13;;;5.47;;
42668;SDS011;29384;42.028;21.388;2023-03-14T00:47:26;12.45;;;5.00;;
42668;SDS011;29384;42.028;21.388;2023-03-14T00:49:52;39.75;;;10.93;;
42668;SDS011;29384;42.028;21.388;2023-03-14T00:52:17;46.05;;;11.50;;
42668;SDS011;29384;42.028;21.388;2023-03-14T00:54:42;16.85;;;8.18;;
42668;SDS011;29384;42.028;21.388;2023-03-14T00:57:07;14.80;;;6.38;;
42668;SDS011;29384;42.028;21.388;2023-03-14T00:59:33;14.63;;;5.43;;
42668;SDS011;29384;42.028;21.388;2023-03-14T01:01:58;11.52;;;5.60;;
42668;SDS011;29384;42.028;21.388;2023-03-14T01:04:23;11.32;;;6.57;;
42668;SDS011;29384;42.028;21.388;2023-03-14T01:06:49;17.70;;;7.85;;
42668;SDS011;29384;42.028;21.388;2023-03-14T01:09:14;17.50;;;6.97;;
42668;SDS011;29384;42.028;21.388;2023-03-14T01:11:41;11.50;;;5.75;;
42668;SDS011;29384;42.028;21.388;2023-03-14T01:17:10;9.10;;;5.80;;
42668;SDS011;29384;42.028;21.388;2023-03-14T01:19:35;16.23;;;6.32;;
42668;SDS011;29384;42.028;21.388;2023-03-14T01:22:00;18.75;;;7.10;;
42668;SDS011;29384;42.028;21.388;2023-03-14T01:24:26;15.73;;;5.47;;
42668;SDS011;29384;42.028;21.388;2023-03-14T01:26:51;14.90;;;4.45;;
42668;SDS011;29384;42.028;21.388;2023-03-14T01:32:19;15.13;;;6.72;;
42668;SDS011;29384;42.028;21.388;2023-03-14T01:34:44;8.77;;;5.93;;
42668;SDS011;29384;42.028;21.388;2023-03-14T01:37:10;16.77;;;6.18;;
42668;SDS011;29384;42.028;21.388;2023-03-14T01:39:37;17.27;;;7.40;;
42668;SDS011;29384;42.028;21.388;2023-03-14T01:42:02;24.83;;;8.68;;
42668;SDS011;29384;42.028;21.388;2023-03-14T01:47:30;24.52;;;10.15;;
42668;SDS011;29384;42.028;21.388;2023-03-14T01:52:28;14.63;;;6.40;;
42668;SDS011;29384;42.028;21.388;2023-03-14T01:55:01;18.13;;;7.03;;
42668;SDS011;29384;42.028;21.388;2023-03-14T01:57:30;14.75;;;6.80;;
42668;SDS011;29384;42.028;21.388;2023-03-14T01:59:57;18.23;;;7.57;;
42668;SDS011;29384;42.028;21.388;2023-03-14T02:02:24;15.52;;;8.43;;
42668;SDS011;29384;42.028;21.388;2023-03-14T02:04:51;17.38;;;7.13;;
42668;SDS011;29384;42.028;21.388;2023-03-14T02:07:20;17.40;;;8.20;;
42668;SDS011;29384;42.028;21.388;2023-03-14T02:09:46;22.60;;;7.93;;
42668;SDS011;29384;42.028;21.388;2023-03-14T02:12:14;19.17;;;8.82;;
42668;SDS011;29384;42.028;21.388;2023-03-14T02:17:42;19.23;;;7.78;;
42668;SDS011;29384;42.028;21.388;2023-03-14T02:22:37;16.98;;;7.03;;
42668;SDS011;29384;42.028;21.388;2023-03-14T02:25:06;11.63;;;6.50;;
42668;SDS011;29384;42.028;21.388;2023-03-14T02:27:33;17.05;;;7.50;;
42668;SDS011;29384;42.028;21.388;2023-03-14T02:33:03;21.77;;;7.50;;
42668;SDS011;29384;42.028;21.388;2023-03-14T04:41:39;13.67;;;7.10;;
42668;SDS011;29384;42.028;21.388;2023-03-14T04:44:04;20.83;;;7.13;;
42668;SDS011;29384;42.028;21.388;2023-03-14T04:46:29;15.17;;;7.43;;
42668;SDS011;29384;42.028;21.388;2023-03-14T04:48:55;15.57;;;7.80;;
42668;SDS011;29384;42.028;21.388;2023-03-14T04:51:21;18.13;;;8.17;;
42668;SDS011;29384;42.028;21.388;2023-03-14T04:53:48;21.27;;;8.50;;
42668;SDS011;29384;42.028;21.388;2023-03-14T04:56:13;18.20;;;8.73;;
42668;SDS011;29384;42.028;21.388;2023-03-14T04:58:39;19.27;;;9.07;;
42668;SDS011;29384;42.028;21.388;2023-03-14T05:01:05;17.40;;;8.13;;
42668;SDS011;29384;42.028;21.388;2023-03-14T05:03:31;26.67;;;8.20;;
42668;SDS011;29384;42.028;21.388;2023-03-14T05:05:56;20.15;;;8.77;;
42668;SDS011;29384;42.028;21.388;2023-03-14T05:08:22;27.20;;;7.88;;
42668;SDS011;29384;42.028;21.388;2023-03-14T05:10:51;26.63;;;8.48;;
42668;SDS011;29384;42.028;21.388;2023-03-14T05:13:17;23.58;;;9.38;;
42668;SDS011;29384;42.028;21.388;2023-03-14T05:15:42;17.95;;;8.57;;
42668;SDS011;29384;42.028;21.388;2023-03-14T05:18:07;12.15;;;7.55;;
42668;SDS011;29384;42.028;21.388;2023-03-14T05:20:33;16.58;;;7.28;;
42668;SDS011;29384;42.028;21.388;2023-03-14T05:22:58;21.00;;;6.38;;
42668;SDS011;29384;42.028;21.388;2023-03-14T05:25:23;16.08;;;7.50;;
42668;SDS011;29384;42.028;21.388;2023-03-14T05:27:48;21.00;;;7.20;;
42668;SDS011;29384;42.028;21.388;2023-03-14T05:33:16;16.75;;;7.32;;
42668;SDS011;29384;42.028;21.388;2023-03-14T05:35:42;15.88;;;7.65;;
42668;SDS011;29384;42.028;21.388;2023-03-14T05:38:08;18.48;;;7.78;;
42668;SDS011;29384;42.028;21.388;2023-03-14T05:40:33;18.17;;;8.18;;
42668;SDS011;29384;42.028;21.388;2023-03-14T05:42:59;14.07;;;7.57;;
42668;SDS011;29384;42.028;21.388;2023-03-14T05:48:26;23.13;;;9.13;;
42668;SDS011;29384;42.028;21.388;2023-03-14T05:50:55;18.58;;;8.52;;
42668;SDS011;29384;42.028;21.388;2023-03-14T05:53:21;23.58;;;9.93;;
42668;SDS011;29384;42.028;21.388;2023-03-14T05:55:46;27.75;;;12.48;;
42668;SDS011;29384;42.028;21.388;2023-03-14T05:58:12;27.05;;;12.60;;
42668;SDS011;29384;42.028;21.388;2023-03-14T06:03:40;35.40;;;11.75;;
42668;SDS011;29384;42.028;21.388;2023-03-14T06:06:05;19.70;;;8.63;;
42668;SDS011;29384;42.028;21.388;2023-03-14T06:08:30;13.25;;;8.73;;
42668;SDS011;29384;42.028;21.388;2023-03-14T06:10:56;26.30;;;9.60;;
42668;SDS011;29384;42.028;21.388;2023-03-14T06:13:21;23.90;;;10.35;;
42668;SDS011;29384;42.028;21.388;2023-03-14T06:18:49;18.15;;;9.23;;
42668;SDS011;29384;42.028;21.388;2023-03-14T06:21:15;18.10;;;9.18;;
42668;SDS011;29384;42.028;21.388;2023-03-14T06:23:40;13.73;;;8.55;;
42668;SDS011;29384;42.028;21.388;2023-03-14T06:26:05;23.10;;;10.02;;
42668;SDS011;29384;42.028;21.388;2023-03-14T06:28:31;22.55;;;8.40;;
42668;SDS011;29384;42.028;21.388;2023-03-14T06:30:56;14.68;;;8.18;;
42668;SDS011;29384;42.028;21.388;2023-03-14T06:33:23;14.57;;;8.65;;
42668;SDS011;29384;42.028;21.388;2023-03-14T06:35:48;12.55;;;7.72;;
42668;SDS011;29384;42.028;21.388;2023-03-14T06:38:13;16.55;;;8.38;;
42668;SDS011;29384;42.028;21.388;2023-03-14T06:40:39;15.27;;;8.18;;
42668;SDS011;29384;42.028;21.388;2023-03-14T06:43:04;30.05;;;11.45;;
42668;SDS011;29384;42.028;21.388;2023-03-14T06:48:32;22.42;;;13.30;;
42668;SDS011;29384;42.028;21.388;2023-03-14T06:50:57;18.50;;;11.18;;
42668;SDS011;29384;42.028;21.388;2023-03-14T06:53:23;21.77;;;9.73;;
42668;SDS011;29384;42.028;21.388;2023-03-14T06:55:48;17.98;;;9.55;;
42668;SDS011;29384;42.028;21.388;2023-03-14T06:58:13;15.90;;;8.75;;
42668;SDS011;29384;42.028;21.388;2023-03-14T07:03:41;18.27;;;8.77;;
42668;SDS011;29384;42.028;21.388;2023-03-14T07:06:07;10.00;;;7.78;;
42668;SDS011;29384;42.028;21.388;2023-03-14T07:08:32;16.98;;;8.00;;
42668;SDS011;29384;42.028;21.388;2023-03-14T07:10:57;9.13;;;7.13;;
42668;SDS011;29384;42.028;21.388;2023-03-14T07:13:23;10.05;;;6.28;;
42668;SDS011;29384;42.028;21.388;2023-03-14T07:18:51;11.13;;;6.40;;
42668;SDS011;29384;42.028;21.388;2023-03-14T07:21:17;10.10;;;5.68;;
42668;SDS011;29384;42.028;21.388;2023-03-14T07:23:42;11.43;;;7.13;;
42668;SDS011;29384;42.028;21.388;2023-03-14T07:26:07;14.57;;;7.05;;
42668;SDS011;29384;42.028;21.388;2023-03-14T07:28:32;10.30;;;6.68;;
42668;SDS011;29384;42.028;21.388;2023-03-14T07:34:00;12.75;;;7.47;;
42668;SDS011;29384;42.028;21.388;2023-03-14T07:36:26;10.23;;;6.45;;
42668;SDS011;29384;42.028;21.388;2023-03-14T07:38:51;11.27;;;6.47;;
42668;SDS011;29384;42.028;21.388;2023-03-14T07:41:17;8.57;;;6.03;;
42668;SDS011;29384;42.028;21.388;2023-03-14T07:43:42;8.52;;;6.85;;
42668;SDS011;29384;42.028;21.388;2023-03-14T07:49:11;9.10;;;5.05;;
42668;SDS011;29384;42.028;21.388;2023-03-14T07:51:36;7.72;;;5.72;;
42668;SDS011;29384;42.028;21.388;2023-03-14T07:54:01;11.95;;;5.38;;
42668;SDS011;29384;42.028;21.388;2023-03-14T07:56:26;7.60;;;5.90;;
42668;SDS011;29384;42.028;21.388;2023-03-14T07:58:52;12.98;;;5.45;;
42668;SDS011;29384;42.028;21.388;2023-03-14T08:04:20;16.95;;;5.68;;
42668;SDS011;29384;42.028;21.388;2023-03-14T08:06:45;15.75;;;5.68;;
42668;SDS011;29384;42.028;21.388;2023-03-14T08:09:10;11.00;;;6.63;;
42668;SDS011;29384;42.028;21.388;2023-03-14T08:11:36;11.27;;;6.45;;
42668;SDS011;29384;42.028;21.388;2023-03-14T08:14:01;9.75;;;4.15;;
42668;SDS011;29384;42.028;21.388;2023-03-14T08:19:29;23.17;;;5.38;;
42668;SDS011;29384;42.028;21.388;2023-03-14T08:21:54;6.25;;;4.80;;
42668;SDS011;29384;42.028;21.388;2023-03-14T08:24:20;8.18;;;5.70;;
42668;SDS011;29384;42.028;21.388;2023-03-14T08:26:45;12.85;;;6.43;;
42668;SDS011;29384;42.028;21.388;2023-03-14T08:29:10;7.78;;;5.45;;
42668;SDS011;29384;42.028;21.388;2023-03-14T08:31:38;8.98;;;5.40;;
42668;SDS011;29384;42.028;21.388;2023-03-14T08:34:03;6.40;;;5.38;;
42668;SDS011;29384;42.028;21.388;2023-03-14T08:36:28;9.93;;;6.07;;
42668;SDS011;29384;42.028;21.388;2023-03-14T08:38:54;40.25;;;9.07;;
42668;SDS011;29384;42.028;21.388;2023-03-14T08:41:19;27.67;;;9.52;;
42668;SDS011;29384;42.028;21.388;2023-03-14T08:43:45;22.52;;;8.68;;
42668;SDS011;29384;42.028;21.388;2023-03-14T08:49:13;12.93;;;8.50;;
42668;SDS011;29384;42.028;21.388;2023-03-14T08:51:39;28.75;;;9.80;;
42668;SDS011;29384;42.028;21.388;2023-03-14T08:54:05;13.15;;;8.57;;
42668;SDS011;29384;42.028;21.388;2023-03-14T08:56:30;19.80;;;9.48;;
42668;SDS011;29384;42.028;21.388;2023-03-14T08:58:55;26.92;;;10.18;;
42668;SDS011;29384;42.028;21.388;2023-03-14T09:04:23;10.35;;;7.22;;
42668;SDS011;29384;42.028;21.388;2023-03-14T09:06:49;13.05;;;7.07;;
42668;SDS011;29384;42.028;21.388;2023-03-14T09:09:14;9.50;;;6.75;;
42668;SDS011;29384;42.028;21.388;2023-03-14T09:11:39;11.73;;;6.30;;
42668;SDS011;29384;42.028;21.388;2023-03-14T09:14:05;21.02;;;7.40;;
42668;SDS011;29384;42.028;21.388;2023-03-14T09:19:34;10.93;;;7.18;;
42668;SDS011;29384;42.028;21.388;2023-03-14T09:21:59;7.85;;;6.22;;
42668;SDS011;29384;42.028;21.388;2023-03-14T09:24:24;12.98;;;7.05;;
42668;SDS011;29384;42.028;21.388;2023-03-14T09:26:50;10.63;;;6.20;;
42668;SDS011;29384;42.028;21.388;2023-03-14T09:29:15;16.98;;;5.72;;
42668;SDS011;29384;42.028;21.388;2023-03-14T09:34:43;9.13;;;6.80;;
42668;SDS011;29384;42.028;21.388;2023-03-14T09:37:09;12.32;;;6.22;;
42668;SDS011;29384;42.028;21.388;2023-03-14T09:39:35;8.07;;;5.93;;
42668;SDS011;29384;42.028;21.388;2023-03-14T09:42:02;9.02;;;6.10;;
42668;SDS011;29384;42.028;21.388;2023-03-14T09:44:29;13.73;;;5.68;;
42668;SDS011;29384;42.028;21.388;2023-03-14T09:50:13;11.40;;;5.57;;
42668;SDS011;29384;42.028;21.388;2023-03-14T09:52:39;10.18;;;5.40;;
42668;SDS011;29384;42.028;21.388;2023-03-14T09:57:31;7.78;;;5.60;;
42668;SDS011;29384;42.028;21.388;2023-03-14T09:59:58;31.52;;;6.53;;
42668;SDS011;29384;42.028;21.388;2023-03-14T10:02:32;7.30;;;4.40;;
42668;SDS011;29384;42.028;21.388;2023-03-14T10:04:58;11.52;;;5.57;;
42668;SDS011;29384;42.028;21.388;2023-03-14T10:07:27;4.93;;;4.53;;
42668;SDS011;29384;42.028;21.388;2023-03-14T10:09:53;5.38;;;4.88;;
42668;SDS011;29384;42.028;21.388;2023-03-14T10:12:18;5.53;;;4.90;;
42668;SDS011;29384;42.028;21.388;2023-03-14T10:14:45;5.85;;;3.85;;
42668;SDS011;29384;42.028;21.388;2023-03-14T10:21:02;5.30;;;3.92;;
42668;SDS011;29384;42.028;21.388;2023-03-14T10:23:28;16.08;;;4.45;;
42668;SDS011;29384;42.028;21.388;2023-03-14T10:26:14;11.10;;;3.88;;
42668;SDS011;29384;42.028;21.388;2023-03-14T10:28:47;4.15;;;3.75;;
42668;SDS011;29384;42.028;21.388;2023-03-14T10:31:12;4.35;;;3.92;;
42668;SDS011;29384;42.028;21.388;2023-03-14T10:33:38;4.55;;;3.63;;
42668;SDS011;29384;42.028;21.388;2023-03-14T10:36:15;5.40;;;4.05;;
42668;SDS011;29384;42.028;21.388;2023-03-14T10:38:42;6.20;;;4.28;;
42668;SDS011;29384;42.028;21.388;2023-03-14T10:41:19;8.27;;;4.38;;
42668;SDS011;29384;42.028;21.388;2023-03-14T10:43:49;4.38;;;4.00;;
42668;SDS011;29384;42.028;21.388;2023-03-14T10:46:15;7.43;;;4.00;;
42668;SDS011;29384;42.028;21.388;2023-03-14T10:48:42;4.57;;;3.47;;
42668;SDS011;29384;42.028;21.388;2023-03-14T10:51:09;5.15;;;3.33;;
42668;SDS011;29384;42.028;21.388;2023-03-14T10:53:40;4.45;;;2.60;;
42668;SDS011;29384;42.028;21.388;2023-03-14T10:56:06;4.50;;;3.65;;
42668;SDS011;29384;42.028;21.388;2023-03-14T10:58:33;3.80;;;3.47;;
42668;SDS011;29384;42.028;21.388;2023-03-14T11:03:24;5.13;;;2.97;;
42668;SDS011;29384;42.028;21.388;2023-03-14T11:06:14;4.75;;;3.20;;
42668;SDS011;29384;42.028;21.388;2023-03-14T11:11:11;8.02;;;2.67;;
42668;SDS011;29384;42.028;21.388;2023-03-14T11:13:39;2.90;;;2.50;;
42668;SDS011;29384;42.028;21.388;2023-03-14T11:28:58;2.83;;;2.60;;
42668;SDS011;29384;42.028;21.388;2023-03-14T11:31:28;2.45;;;2.25;;
42668;SDS011;29384;42.028;21.388;2023-03-14T11:36:52;3.40;;;2.92;;
42668;SDS011;29384;42.028;21.388;2023-03-14T11:39:18;5.85;;;2.50;;
42668;SDS011;29384;42.028;21.388;2023-03-14T11:41:45;2.08;;;1.95;;
42668;SDS011;29384;42.028;21.388;2023-03-14T11:49:44;3.33;;;2.60;;
42668;SDS011;29384;42.028;21.388;2023-03-14T11:52:23;4.55;;;2.58;;
42668;SDS011;29384;42.028;21.388;2023-03-14T11:54:55;7.22;;;2.80;;
42668;SDS011;29384;42.028;21.388;2023-03-14T11:57:21;6.95;;;2.50;;
42668;SDS011;29384;42.028;21.388;2023-03-14T11:59:52;2.45;;;2.20;;
42668;SDS011;29384;42.028;21.388;2023-03-14T12:05:20;2.33;;;2.20;;
42668;SDS011;29384;42.028;21.388;2023-03-14T12:10:14;2.47;;;2.28;;
42668;SDS011;29384;42.028;21.388;2023-03-14T12:12:39;12.32;;;2.45;;
42668;SDS011;29384;42.028;21.388;2023-03-14T12:15:05;2.30;;;1.95;;
42668;SDS011;29384;42.028;21.388;2023-03-14T12:20:03;2.63;;;1.77;;
42668;SDS011;29384;42.028;21.388;2023-03-14T12:22:33;2.50;;;2.38;;
42668;SDS011;29384;42.028;21.388;2023-03-14T12:30:05;2.50;;;2.03;;
42668;SDS011;29384;42.028;21.388;2023-03-14T12:32:39;2.92;;;2.65;;
42668;SDS011;29384;42.028;21.388;2023-03-14T12:35:32;3.13;;;1.88;;
42668;SDS011;29384;42.028;21.388;2023-03-14T12:37:52;3.50;;;2.20;;
42668;SDS011;29384;42.028;21.388;2023-03-14T12:40:21;2.80;;;2.30;;
42668;SDS011;29384;42.028;21.388;2023-03-14T12:42:54;5.55;;;2.55;;
42668;SDS011;29384;42.028;21.388;2023-03-14T12:47:54;3.55;;;2.08;;
42668;SDS011;29384;42.028;21.388;2023-03-14T12:50:26;1.80;;;1.70;;
42668;SDS011;29384;42.028;21.388;2023-03-14T12:53:05;2.53;;;1.73;;
42668;SDS011;29384;42.028;21.388;2023-03-14T12:58:25;3.58;;;2.17;;
42668;SDS011;29384;42.028;21.388;2023-03-14T13:03:57;1.75;;;1.75;;
42668;SDS011;29384;42.028;21.388;2023-03-14T13:07:10;1.63;;;1.50;;
42668;SDS011;29384;42.028;21.388;2023-03-14T13:09:34;2.90;;;1.88;;
42668;SDS011;29384;42.028;21.388;2023-03-14T13:12:06;3.13;;;1.27;;
42668;SDS011;29384;42.028;21.388;2023-03-14T13:14:34;1.13;;;1.13;;
42668;SDS011;29384;42.028;21.388;2023-03-14T13:22:47;2.05;;;1.05;;
42668;SDS011;29384;42.028;21.388;2023-03-14T13:25:13;3.22;;;1.25;;
42668;SDS011;29384;42.028;21.388;2023-03-14T13:27:38;2.00;;;0.93;;
42668;SDS011;29384;42.028;21.388;2023-03-14T13:30:12;3.97;;;1.15;;
42668;SDS011;29384;42.028;21.388;2023-03-14T13:36:04;1.67;;;1.25;;
42668;SDS011;29384;42.028;21.388;2023-03-14T13:38:29;2.90;;;1.48;;
42668;SDS011;29384;42.028;21.388;2023-03-14T13:40:55;1.13;;;1.13;;
42668;SDS011;29384;42.028;21.388;2023-03-14T13:45:54;1.23;;;1.13;;
42668;SDS011;29384;42.028;21.388;2023-03-14T13:51:22;4.43;;;1.08;;
42668;SDS011;29384;42.028;21.388;2023-03-14T13:53:53;1.08;;;0.98;;
42668;SDS011;29384;42.028;21.388;2023-03-14T13:56:19;0.90;;;0.90;;
42668;SDS011;29384;42.028;21.388;2023-03-14T13:58:45;1.40;;;1.40;;
42668;SDS011;29384;42.028;21.388;2023-03-14T14:03:39;1.15;;;0.93;;
42668;SDS011;29384;42.028;21.388;2023-03-14T14:06:06;1.20;;;1.10;;
42668;SDS011;29384;42.028;21.388;2023-03-14T14:08:33;12.23;;;1.20;;
42668;SDS011;29384;42.028;21.388;2023-03-14T14:10:59;5.05;;;1.45;;
42668;SDS011;29384;42.028;21.388;2023-03-14T14:13:26;3.33;;;1.10;;
42668;SDS011;29384;42.028;21.388;2023-03-14T14:15:52;1.10;;;1.00;;
42668;SDS011;29384;42.028;21.388;2023-03-14T14:21:21;1.38;;;1.27;;
42668;SDS011;29384;42.028;21.388;2023-03-14T14:23:46;5.82;;;1.85;;
42668;SDS011;29384;42.028;21.388;2023-03-14T14:26:14;3.40;;;1.10;;
42668;SDS011;29384;42.028;21.388;2023-03-14T14:28:41;16.42;;;0.93;;
42668;SDS011;29384;42.028;21.388;2023-03-14T14:37:31;1.63;;;1.05;;
42668;SDS011;29384;42.028;21.388;2023-03-14T14:42:45;3.75;;;1.67;;
42668;SDS011;29384;42.028;21.388;2023-03-14T14:45:12;1.00;;;1.00;;
42668;SDS011;29384;42.028;21.388;2023-03-14T14:47:47;1.67;;;0.90;;
42668;SDS011;29384;42.028;21.388;2023-03-14T14:50:30;2.78;;;1.10;;
42668;SDS011;29384;42.028;21.388;2023-03-14T14:52:56;0.93;;;0.88;;
42668;SDS011;29384;42.028;21.388;2023-03-14T14:55:21;1.50;;;1.15;;
42668;SDS011;29384;42.028;21.388;2023-03-14T14:57:51;6.28;;;1.75;;
42668;SDS011;29384;42.028;21.388;2023-03-14T15:00:21;6.93;;;1.60;;
42668;SDS011;29384;42.028;21.388;2023-03-14T15:02:47;1.25;;;1.17;;
42668;SDS011;29384;42.028;21.388;2023-03-14T15:05:14;2.33;;;1.17;;
42668;SDS011;29384;42.028;21.388;2023-03-14T15:07:39;1.70;;;1.60;;
42668;SDS011;29384;42.028;21.388;2023-03-14T15:10:05;2.60;;;1.23;;
42668;SDS011;29384;42.028;21.388;2023-03-14T15:12:30;5.65;;;1.10;;
42668;SDS011;29384;42.028;21.388;2023-03-14T15:14:56;1.42;;;1.33;;
42668;SDS011;29384;42.028;21.388;2023-03-14T15:17:22;2.45;;;1.70;;
42668;SDS011;29384;42.028;21.388;2023-03-14T15:19:47;1.13;;;1.02;;
42668;SDS011;29384;42.028;21.388;2023-03-14T15:22:13;3.72;;;1.05;;
42668;SDS011;29384;42.028;21.388;2023-03-14T15:24:39;2.53;;;1.60;;
42668;SDS011;29384;42.028;21.388;2023-03-14T15:27:05;1.85;;;1.38;;
42668;SDS011;29384;42.028;21.388;2023-03-14T15:29:30;1.15;;;1.13;;
42668;SDS011;29384;42.028;21.388;2023-03-14T15:31:56;1.55;;;1.50;;
42668;SDS011;29384;42.028;21.388;2023-03-14T15:34:21;12.27;;;1.40;;
42668;SDS011;29384;42.028;21.388;2023-03-14T15:36:46;1.25;;;1.02;;
42668;SDS011;29384;42.028;21.388;2023-03-14T15:39:11;4.22;;;1.45;;
42668;SDS011;29384;42.028;21.388;2023-03-14T15:41:37;1.35;;;0.98;;
42668;SDS011;29384;42.028;21.388;2023-03-14T15:44:02;1.80;;;1.63;;
42668;SDS011;29384;42.028;21.388;2023-03-14T15:46:27;2.55;;;1.45;;
42668;SDS011;29384;42.028;21.388;2023-03-14T15:51:55;2.90;;;2.08;;
42668;SDS011;29384;42.028;21.388;2023-03-14T15:54:21;5.07;;;1.35;;
42668;SDS011;29384;42.028;21.388;2023-03-14T15:56:46;3.58;;;1.95;;
42668;SDS011;29384;42.028;21.388;2023-03-14T15:59:11;2.55;;;2.35;;
42668;SDS011;29384;42.028;21.388;2023-03-14T16:01:37;4.18;;;1.73;;
42668;SDS011;29384;42.028;21.388;2023-03-14T16:07:04;2.25;;;1.92;;
42668;SDS011;29384;42.028;21.388;2023-03-14T16:09:30;3.70;;;2.30;;
42668;SDS011;29384;42.028;21.388;2023-03-14T16:11:56;2.10;;;1.80;;
42668;SDS011;29384;42.028;21.388;2023-03-14T16:14:21;2.83;;;2.15;;
42668;SDS011;29384;42.028;21.388;2023-03-14T16:16:48;4.95;;;1.77;;
42668;SDS011;29384;42.028;21.388;2023-03-14T16:22:16;6.78;;;1.45;;
42668;SDS011;29384;42.028;21.388;2023-03-14T16:24:42;13.45;;;2.22;;
42668;SDS011;29384;42.028;21.388;2023-03-14T16:27:07;8.88;;;2.28;;
42668;SDS011;29384;42.028;21.388;2023-03-14T16:29:32;1.88;;;1.77;;
42668;SDS011;29384;42.028;21.388;2023-03-14T16:31:58;2.95;;;1.98;;
42668;SDS011;29384;42.028;21.388;2023-03-14T16:34:23;4.43;;;1.80;;
42668;SDS011;29384;42.028;21.388;2023-03-14T16:36:48;7.13;;;2.10;;
42668;SDS011;29384;42.028;21.388;2023-03-14T16:39:17;8.30;;;3.90;;
42668;SDS011;29384;42.028;21.388;2023-03-14T16:41:42;4.68;;;2.92;;
42668;SDS011;29384;42.028;21.388;2023-03-14T16:44:08;12.10;;;3.80;;
42668;SDS011;29384;42.028;21.388;2023-03-14T16:46:33;8.88;;;4.35;;
42668;SDS011;29384;42.028;21.388;2023-03-14T16:52:03;15.68;;;4.18;;
42668;SDS011;29384;42.028;21.388;2023-03-14T16:54:28;16.90;;;4.47;;
42668;SDS011;29384;42.028;21.388;2023-03-14T16:56:53;10.10;;;4.40;;
42668;SDS011;29384;42.028;21.388;2023-03-14T16:59:19;16.67;;;6.70;;
42668;SDS011;29384;42.028;21.388;2023-03-14T17:01:44;21.20;;;9.13;;
42668;SDS011;29384;42.028;21.388;2023-03-14T17:07:13;8.93;;;6.22;;
42668;SDS011;29384;42.028;21.388;2023-03-14T17:09:38;11.77;;;5.20;;
42668;SDS011;29384;42.028;21.388;2023-03-14T17:12:04;9.98;;;4.05;;
42668;SDS011;29384;42.028;21.388;2023-03-14T17:14:29;7.20;;;3.33;;
42668;SDS011;29384;42.028;21.388;2023-03-14T17:16:55;4.00;;;3.67;;
42668;SDS011;29384;42.028;21.388;2023-03-14T17:22:22;7.05;;;4.18;;
42668;SDS011;29384;42.028;21.388;2023-03-14T17:24:48;5.70;;;3.63;;
42668;SDS011;29384;42.028;21.388;2023-03-14T17:27:13;11.93;;;5.65;;
42668;SDS011;29384;42.028;21.388;2023-03-14T17:29:43;9.00;;;4.80;;
42668;SDS011;29384;42.028;21.388;2023-03-14T17:32:09;7.32;;;4.53;;
42668;SDS011;29384;42.028;21.388;2023-03-14T17:37:36;8.82;;;6.40;;
42668;SDS011;29384;42.028;21.388;2023-03-14T17:40:02;18.15;;;8.88;;
42668;SDS011;29384;42.028;21.388;2023-03-14T17:42:28;19.85;;;8.40;;
42668;SDS011;29384;42.028;21.388;2023-03-14T17:44:55;8.93;;;5.40;;
42668;SDS011;29384;42.028;21.388;2023-03-14T17:47:20;5.78;;;3.42;;
42668;SDS011;29384;42.028;21.388;2023-03-14T17:52:48;6.38;;;3.20;;
42668;SDS011;29384;42.028;21.388;2023-03-14T17:55:13;6.43;;;3.83;;
42668;SDS011;29384;42.028;21.388;2023-03-14T17:57:39;6.88;;;4.32;;
42668;SDS011;29384;42.028;21.388;2023-03-14T18:00:07;7.63;;;3.42;;
42668;SDS011;29384;42.028;21.388;2023-03-14T18:02:33;4.72;;;3.78;;
42668;SDS011;29384;42.028;21.388;2023-03-14T18:04:59;6.82;;;4.25;;
42668;SDS011;29384;42.028;21.388;2023-03-14T18:07:24;10.63;;;5.07;;
42668;SDS011;29384;42.028;21.388;2023-03-14T18:09:50;6.10;;;4.85;;
42668;SDS011;29384;42.028;21.388;2023-03-14T18:12:15;11.55;;;5.43;;
42668;SDS011;29384;42.028;21.388;2023-03-14T18:14:40;22.35;;;5.45;;
42668;SDS011;29384;42.028;21.388;2023-03-14T18:17:08;10.90;;;5.05;;
42668;SDS011;29384;42.028;21.388;2023-03-14T18:22:39;10.23;;;5.78;;
42668;SDS011;29384;42.028;21.388;2023-03-14T18:25:06;24.35;;;7.25;;
42668;SDS011;29384;42.028;21.388;2023-03-14T18:27:32;24.08;;;5.95;;
42668;SDS011;29384;42.028;21.388;2023-03-14T18:29:57;14.13;;;5.65;;
42668;SDS011;29384;42.028;21.388;2023-03-14T18:32:22;5.53;;;4.22;;
42668;SDS011;29384;42.028;21.388;2023-03-14T18:37:50;10.18;;;3.17;;
42668;SDS011;29384;42.028;21.388;2023-03-14T18:40:15;4.43;;;3.10;;
42668;SDS011;29384;42.028;21.388;2023-03-14T18:42:41;4.07;;;3.63;;
42668;SDS011;29384;42.028;21.388;2023-03-14T18:45:07;5.20;;;2.72;;
42668;SDS011;29384;42.028;21.388;2023-03-14T18:47:33;9.38;;;4.15;;
42668;SDS011;29384;42.028;21.388;2023-03-14T18:53:03;13.73;;;4.40;;
42668;SDS011;29384;42.028;21.388;2023-03-14T18:55:28;11.27;;;6.43;;
42668;SDS011;29384;42.028;21.388;2023-03-14T18:57:53;22.05;;;5.22;;
42668;SDS011;29384;42.028;21.388;2023-03-14T19:00:19;7.22;;;5.13;;
42668;SDS011;29384;42.028;21.388;2023-03-14T19:02:44;5.28;;;4.75;;
42668;SDS011;29384;42.028;21.388;2023-03-14T19:08:12;8.95;;;5.40;;
42668;SDS011;29384;42.028;21.388;2023-03-14T19:10:38;8.60;;;4.32;;
42668;SDS011;29384;42.028;21.388;2023-03-14T19:13:04;12.32;;;5.22;;
42668;SDS011;29384;42.028;21.388;2023-03-14T19:15:29;11.73;;;5.50;;
42668;SDS011;29384;42.028;21.388;2023-03-14T19:17:54;7.38;;;6.07;;
42668;SDS011;29384;42.028;21.388;2023-03-14T19:20:19;14.30;;;5.57;;
42668;SDS011;29384;42.028;21.388;2023-03-14T19:22:45;32.90;;;5.88;;
42668;SDS011;29384;42.028;21.388;2023-03-14T19:25:10;10.18;;;6.15;;
42668;SDS011;29384;42.028;21.388;2023-03-14T19:27:36;8.85;;;5.47;;
42668;SDS011;29384;42.028;21.388;2023-03-14T19:30:03;8.15;;;5.53;;
42668;SDS011;29384;42.028;21.388;2023-03-14T19:32:28;11.38;;;5.93;;
42668;SDS011;29384;42.028;21.388;2023-03-14T19:37:56;22.42;;;5.70;;
42668;SDS011;29384;42.028;21.388;2023-03-14T19:40:21;12.68;;;5.07;;
42668;SDS011;29384;42.028;21.388;2023-03-14T19:42:46;9.68;;;5.03;;
42668;SDS011;29384;42.028;21.388;2023-03-14T19:45:12;16.98;;;6.88;;
42668;SDS011;29384;42.028;21.388;2023-03-14T19:47:37;14.98;;;6.25;;
42668;SDS011;29384;42.028;21.388;2023-03-14T19:53:05;6.07;;;4.75;;
42668;SDS011;29384;42.028;21.388;2023-03-14T19:55:33;9.48;;;4.70;;